Time;durP1;ratioP1;P1;durP2;ratioP2;P2;SDS_P1;SDS_P2;PMS_P1;PMS_P2;Temp;Humidity;BMP_temperature;BMP_pressure;BME280_temperature;BME280_humidity;BME280_pressure;Samples;Min_cycle;Max_cycle;Signal;HPM_P1;HPM_P2
2021/09/05 00:00:56;;;;;;;71.40;43.40;;;14.00;99.90;;;;;;5092580;28;20466;-72
2021/09/05 00:03:23;;;;;;;58.97;43.57;;;14.00;99.90;;;;;;5096682;28;20478;-72
2021/09/05 00:05:52;;;;;;;61.20;42.30;;;14.00;99.90;;;;;;5099702;28;20465;-70
2021/09/05 00:08:19;;;;;;;59.10;43.10;;;14.00;99.90;;;;;;5095443;28;20461;-70
2021/09/05 00:10:46;;;;;;;63.77;42.93;;;13.90;99.90;;;;;;5097553;28;20525;-71
2021/09/05 00:13:13;;;;;;;62.50;44.27;;;13.80;99.90;;;;;;5094155;28;20530;-71
2021/09/05 00:15:40;;;;;;;57.13;44.10;;;13.80;99.90;;;;;;5098614;28;20460;-71
2021/09/05 00:18:08;;;;;;;55.07;41.50;;;13.80;99.90;;;;;;5100127;28;20920;-72
2021/09/05 00:20:35;;;;;;;57.90;40.80;;;13.80;99.90;;;;;;5089197;28;20986;-71
2021/09/05 00:23:04;;;;;;;63.53;43.07;;;13.70;99.90;;;;;;5094237;28;20962;-71
2021/09/05 00:25:34;;;;;;;48.63;39.50;;;13.70;99.90;;;;;;5093492;28;20453;-71
2021/09/05 00:28:01;;;;;;;52.33;40.07;;;13.70;99.90;;;;;;5092603;28;20481;-71
2021/09/05 00:30:29;;;;;;;53.27;39.60;;;13.60;99.90;;;;;;5090227;28;20809;-70
2021/09/05 00:32:56;;;;;;;59.37;41.50;;;13.60;99.90;;;;;;5088412;28;20461;-71
2021/09/05 00:35:23;;;;;;;62.40;42.33;;;13.50;99.90;;;;;;5096899;28;20798;-70
2021/09/05 00:37:50;;;;;;;55.43;41.80;;;13.50;99.90;;;;;;5096837;28;20492;-70
2021/09/05 00:40:19;;;;;;;59.63;40.90;;;13.50;99.90;;;;;;5094748;28;20457;-70
2021/09/05 00:42:47;;;;;;;53.83;40.87;;;13.40;99.90;;;;;;5095015;28;20944;-72
2021/09/05 00:45:13;;;;;;;55.50;40.73;;;13.40;99.90;;;;;;5089247;28;20476;-71
2021/09/05 00:47:40;;;;;;;61.07;43.07;;;13.30;99.90;;;;;;5095003;28;20826;-71
2021/09/05 00:50:09;;;;;;;48.17;40.53;;;13.30;99.90;;;;;;5093821;28;20789;-71
2021/09/05 00:52:36;;;;;;;52.93;39.57;;;13.20;99.90;;;;;;5093749;28;20519;-72
2021/09/05 00:55:04;;;;;;;50.10;40.47;;;13.20;99.90;;;;;;5099302;28;20464;-71
2021/09/05 00:57:33;;;;;;;54.80;40.30;;;13.20;99.90;;;;;;5092815;28;20492;-71
2021/09/05 01:00:03;;;;;;;58.63;41.87;;;13.10;99.90;;;;;;5093571;28;20496;-72
2021/09/05 01:02:30;;;;;;;59.10;43.90;;;13.10;99.90;;;;;;5095620;28;20477;-72
2021/09/05 01:04:57;;;;;;;57.87;42.33;;;13.00;99.90;;;;;;5096462;28;20800;-71
2021/09/05 01:07:25;;;;;;;65.50;41.67;;;13.00;99.90;;;;;;5097042;28;20550;-71
2021/09/05 01:09:53;;;;;;;60.13;44.10;;;13.00;99.90;;;;;;5099284;28;20793;-71
2021/09/05 01:12:20;;;;;;;53.27;40.73;;;13.00;99.90;;;;;;5101614;28;20476;-71
2021/09/05 01:14:50;;;;;;;48.07;41.10;;;12.90;99.90;;;;;;5099025;28;20461;-70
2021/09/05 01:17:17;;;;;;;57.23;41.10;;;12.90;99.90;;;;;;5100664;28;20482;-70
2021/09/05 01:19:44;;;;;;;56.13;40.90;;;12.80;99.90;;;;;;5095651;28;20461;-71
2021/09/05 01:22:12;;;;;;;50.60;39.93;;;12.80;99.90;;;;;;5090742;28;20457;-70
2021/09/05 01:24:39;;;;;;;56.17;42.40;;;12.80;99.90;;;;;;5104355;28;20465;-71
2021/09/05 01:27:08;;;;;;;61.83;41.80;;;12.70;99.90;;;;;;5097645;28;20457;-73
2021/09/05 01:29:35;;;;;;;60.60;42.17;;;12.70;99.90;;;;;;5098171;28;20463;-71
2021/09/05 01:32:04;;;;;;;54.70;40.47;;;12.60;99.90;;;;;;5098175;28;20446;-71
2021/09/05 01:34:33;;;;;;;54.27;40.77;;;12.60;99.90;;;;;;5101904;28;20479;-72
2021/09/05 01:37:00;;;;;;;46.20;38.50;;;12.60;99.90;;;;;;5092412;28;20470;-71
2021/09/05 01:39:27;;;;;;;56.37;42.20;;;12.60;99.90;;;;;;5097669;27;20461;-72
2021/09/05 01:41:54;;;;;;;56.80;42.30;;;12.50;99.90;;;;;;5095663;28;20454;-71
2021/09/05 01:44:24;;;;;;;63.83;41.10;;;12.60;99.90;;;;;;5096645;28;20465;-71
2021/09/05 01:46:52;;;;;;;55.60;41.17;;;12.60;99.90;;;;;;5099627;28;20457;-70
2021/09/05 01:49:21;;;;;;;49.33;39.43;;;12.60;99.90;;;;;;5098475;27;20483;-71
2021/09/05 01:51:48;;;;;;;57.07;41.27;;;12.50;99.90;;;;;;5099432;28;20816;-71
2021/09/05 01:54:15;;;;;;;59.27;41.50;;;12.40;99.90;;;;;;5095274;28;20481;-71
2021/09/05 01:56:43;;;;;;;49.53;38.40;;;12.40;99.90;;;;;;5098626;28;20454;-71
2021/09/05 01:59:10;;;;;;;51.73;38.90;;;12.40;99.90;;;;;;5101397;28;20656;-71
2021/09/05 02:01:39;;;;;;;55.63;40.10;;;12.30;99.90;;;;;;5095656;28;20462;-71
2021/09/05 02:04:07;;;;;;;58.90;41.57;;;12.30;99.90;;;;;;5097988;28;20481;-72
2021/09/05 02:06:34;;;;;;;63.80;42.23;;;12.40;99.90;;;;;;5098343;28;20465;-71
2021/09/05 02:09:02;;;;;;;57.73;40.10;;;12.50;99.90;;;;;;5095838;28;20458;-71
2021/09/05 02:11:28;;;;;;;46.63;36.93;;;12.50;99.90;;;;;;5091604;28;20456;-71
2021/09/05 02:13:55;;;;;;;52.27;38.57;;;12.40;99.90;;;;;;5092317;28;20454;-71
2021/09/05 02:16:24;;;;;;;49.10;39.77;;;12.40;99.90;;;;;;5102028;28;20470;-70
2021/09/05 02:18:53;;;;;;;46.07;39.80;;;12.30;99.90;;;;;;5089681;28;21051;-71
2021/09/05 02:21:20;;;;;;;54.37;38.77;;;12.30;99.90;;;;;;5101397;28;20472;-72
2021/09/05 02:23:47;;;;;;;48.97;38.67;;;12.30;99.90;;;;;;5095819;28;20944;-71
2021/09/05 02:26:14;;;;;;;44.97;37.73;;;12.30;99.90;;;;;;5098757;28;20461;-71
2021/09/05 02:28:41;;;;;;;55.80;41.13;;;12.30;99.90;;;;;;5095386;28;20795;-71
2021/09/05 02:31:08;;;;;;;61.73;41.30;;;12.20;99.90;;;;;;5102407;28;20464;-71
2021/09/05 02:33:36;;;;;;;51.63;38.80;;;12.30;99.90;;;;;;5090319;28;20456;-71
2021/09/05 02:36:05;;;;;;;55.63;41.70;;;12.30;99.90;;;;;;5098432;28;20449;-70
2021/09/05 02:38:32;;;;;;;41.53;36.37;;;12.20;99.90;;;;;;5094455;28;20508;-71
2021/09/05 02:40:59;;;;;;;49.80;39.43;;;12.10;99.90;;;;;;5094058;28;20479;-70
2021/09/05 02:43:26;;;;;;;52.47;38.63;;;12.10;99.90;;;;;;5094771;28;20454;-71
2021/09/05 02:45:54;;;;;;;53.00;39.67;;;12.10;99.90;;;;;;5089588;28;20454;-71
2021/09/05 02:48:21;;;;;;;52.37;39.07;;;12.00;99.90;;;;;;5093092;28;20824;-71
2021/09/05 02:50:49;;;;;;;51.20;37.77;;;12.00;99.90;;;;;;5093571;28;20787;-72
2021/09/05 02:53:17;;;;;;;57.03;41.00;;;12.00;99.90;;;;;;5091597;28;20492;-71
2021/09/05 02:55:45;;;;;;;56.57;41.50;;;12.00;99.90;;;;;;5096963;28;20776;-70
2021/09/05 02:58:12;;;;;;;64.70;42.07;;;12.10;99.90;;;;;;5090511;28;20507;-70
2021/09/05 03:00:39;;;;;;;50.27;39.20;;;12.10;99.90;;;;;;5096700;28;20457;-71
2021/09/05 03:03:06;;;;;;;44.37;37.60;;;12.00;99.90;;;;;;5096858;28;20480;-70
2021/09/05 03:05:34;;;;;;;50.90;38.43;;;12.00;99.90;;;;;;5089643;28;20481;-71
2021/09/05 03:08:01;;;;;;;49.67;38.37;;;12.00;99.90;;;;;;5094865;28;20680;-70
2021/09/05 03:10:31;;;;;;;42.33;34.80;;;11.90;99.90;;;;;;5097613;27;20468;-70
2021/09/05 03:12:57;;;;;;;41.97;36.80;;;11.90;99.90;;;;;;5102174;28;20950;-70
2021/09/05 03:15:24;;;;;;;43.10;36.80;;;11.90;99.90;;;;;;5096717;28;20461;-70
2021/09/05 03:17:54;;;;;;;46.80;36.83;;;11.90;99.90;;;;;;5090901;28;20990;-70
2021/09/05 03:20:21;;;;;;;40.33;35.00;;;11.80;99.90;;;;;;5100473;28;20835;-70
2021/09/05 03:22:47;;;;;;;48.90;36.87;;;11.70;99.90;;;;;;5093316;28;20453;-70
2021/09/05 03:25:15;;;;;;;39.93;35.53;;;11.70;99.90;;;;;;5088893;28;20458;-70
2021/09/05 03:27:45;;;;;;;41.50;35.90;;;11.80;99.90;;;;;;5091901;28;21029;-72
2021/09/05 03:30:13;;;;;;;42.70;34.87;;;11.70;99.90;;;;;;5096289;28;20457;-70
2021/09/05 03:32:41;;;;;;;42.60;35.63;;;11.70;99.90;;;;;;5102410;28;20536;-70
2021/09/05 03:35:09;;;;;;;46.33;36.40;;;11.70;99.90;;;;;;5089972;28;20550;-70
2021/09/05 03:37:35;;;;;;;52.70;39.60;;;11.70;99.90;;;;;;5095586;28;20549;-70
2021/09/05 03:40:03;;;;;;;47.00;38.70;;;11.70;99.90;;;;;;5093364;28;20461;-71
2021/09/05 03:42:30;;;;;;;51.30;37.87;;;11.70;99.90;;;;;;5093384;28;20470;-71
2021/09/05 03:44:58;;;;;;;49.67;35.50;;;11.70;99.90;;;;;;5088194;28;20607;-70
2021/09/05 03:47:26;;;;;;;43.37;35.60;;;11.70;99.90;;;;;;5095123;28;20801;-70
2021/09/05 03:49:53;;;;;;;45.70;36.47;;;11.70;99.90;;;;;;5100283;28;20456;-71
2021/09/05 03:52:21;;;;;;;45.33;36.80;;;11.70;99.90;;;;;;5087636;28;21161;-70
2021/09/05 03:54:47;;;;;;;39.97;34.57;;;11.70;99.90;;;;;;5088915;28;20944;-72
2021/09/05 03:57:14;;;;;;;36.70;32.50;;;11.60;99.90;;;;;;5096182;28;20450;-71
2021/09/05 03:59:41;;;;;;;42.80;36.90;;;11.60;99.90;;;;;;5095428;28;20464;-70
2021/09/05 04:02:10;;;;;;;47.20;37.60;;;11.50;99.90;;;;;;5098583;28;20480;-70
2021/09/05 04:04:37;;;;;;;42.60;36.20;;;11.60;99.90;;;;;;5090759;28;21198;-71
2021/09/05 04:07:04;;;;;;;45.40;36.50;;;11.60;99.90;;;;;;5095567;28;20457;-70
2021/09/05 04:12:16;;;;;;;50.87;35.93;;;11.60;99.90;;;;;;5102959;28;20448;-70
2021/09/05 04:14:43;;;;;;;45.30;36.60;;;11.60;99.90;;;;;;5092477;28;20468;-71
2021/09/05 04:17:11;;;;;;;45.03;37.10;;;11.60;99.90;;;;;;5095617;28;20457;-70
2021/09/05 04:19:38;;;;;;;50.23;36.17;;;11.50;99.90;;;;;;5095365;28;20493;-70
2021/09/05 04:22:06;;;;;;;45.43;36.47;;;11.50;99.90;;;;;;5094540;28;20827;-71
2021/09/05 04:24:33;;;;;;;50.43;38.13;;;11.60;99.90;;;;;;5089465;28;20874;-70
2021/09/05 04:26:59;;;;;;;47.13;35.60;;;11.60;99.90;;;;;;5096049;28;20787;-70
2021/09/05 04:29:27;;;;;;;54.53;40.83;;;11.50;99.90;;;;;;5100774;28;20449;-71
2021/09/05 04:31:54;;;;;;;51.30;39.97;;;11.50;99.90;;;;;;5093058;28;20852;-70
2021/09/05 04:34:22;;;;;;;51.17;39.03;;;11.50;99.90;;;;;;5097441;28;20465;-70
2021/09/05 04:36:49;;;;;;;53.17;38.90;;;11.40;99.90;;;;;;5091557;28;20460;-70
2021/09/05 04:39:18;;;;;;;43.17;36.20;;;11.40;99.90;;;;;;5095391;28;20503;-70
2021/09/05 04:41:46;;;;;;;59.07;37.63;;;11.40;99.90;;;;;;5100527;28;20458;-70
2021/09/05 04:44:13;;;;;;;45.03;36.87;;;11.40;99.90;;;;;;5091897;28;20461;-71
2021/09/05 04:46:40;;;;;;;43.13;36.23;;;11.40;99.90;;;;;;5095762;28;20484;-70
2021/09/05 04:49:07;;;;;;;54.57;40.00;;;11.40;99.90;;;;;;5103103;28;20464;-70
2021/09/05 04:51:36;;;;;;;49.40;39.07;;;11.40;99.90;;;;;;5099990;28;20461;-70
2021/09/05 04:54:02;;;;;;;58.37;41.40;;;11.50;99.90;;;;;;5098904;28;20539;-70
2021/09/05 04:56:29;;;;;;;52.63;39.03;;;11.50;99.90;;;;;;5095804;28;20458;-70
2021/09/05 04:58:57;;;;;;;54.00;39.80;;;11.50;99.90;;;;;;5101882;28;20481;-70
2021/09/05 05:01:24;;;;;;;50.37;38.97;;;11.50;99.90;;;;;;5095799;28;20464;-70
2021/09/05 05:03:51;;;;;;;49.97;37.60;;;11.50;99.90;;;;;;5099695;27;20477;-70
2021/09/05 05:06:18;;;;;;;41.30;35.03;;;11.40;99.90;;;;;;5091250;28;20806;-70
2021/09/05 05:08:49;;;;;;;40.53;36.10;;;11.40;99.90;;;;;;5093479;28;20454;-68
2021/09/05 05:11:16;;;;;;;44.03;37.13;;;11.30;99.90;;;;;;5100477;28;20994;-70
2021/09/05 05:13:44;;;;;;;43.37;35.97;;;11.30;99.90;;;;;;5103942;28;20492;-70
2021/09/05 05:16:11;;;;;;;45.37;37.83;;;11.30;99.90;;;;;;5103717;28;20450;-70
2021/09/05 05:18:39;;;;;;;45.47;34.80;;;11.30;99.90;;;;;;5097063;28;20474;-69
2021/09/05 05:21:05;;;;;;;43.03;35.57;;;11.30;99.90;;;;;;5099480;28;20465;-69
2021/09/05 05:23:33;;;;;;;52.67;37.93;;;11.40;99.90;;;;;;5094642;28;20445;-69
2021/09/05 05:26:02;;;;;;;51.90;37.67;;;11.40;99.90;;;;;;5095799;28;22466;-69
2021/09/05 05:28:29;;;;;;;43.87;35.50;;;11.50;99.90;;;;;;5095662;28;20465;-69
2021/09/05 05:30:55;;;;;;;47.53;37.17;;;11.50;99.90;;;;;;5099115;28;20460;-69
2021/09/05 05:33:23;;;;;;;54.07;38.23;;;11.50;99.90;;;;;;5097706;28;20794;-68
2021/09/05 05:35:50;;;;;;;45.03;37.77;;;11.60;99.90;;;;;;5090672;28;20454;-69
2021/09/05 05:38:17;;;;;;;53.07;38.80;;;11.70;99.90;;;;;;5099623;28;20488;-69
2021/09/05 05:40:46;;;;;;;50.33;37.43;;;11.90;99.90;;;;;;5091126;28;20963;-68
2021/09/05 05:43:16;;;;;;;52.07;38.40;;;12.10;99.90;;;;;;5095994;28;20460;-69
2021/09/05 05:45:45;;;;;;;48.63;38.00;;;12.20;99.90;;;;;;5096352;28;20461;-69
2021/09/05 05:48:13;;;;;;;54.37;39.57;;;12.30;99.90;;;;;;5097590;28;20470;-69
2021/09/05 05:50:41;;;;;;;53.00;37.57;;;12.40;99.90;;;;;;5092076;28;20489;-69
2021/09/05 05:53:09;;;;;;;53.77;39.80;;;12.50;99.90;;;;;;5101158;28;20911;-68
2021/09/05 05:55:37;;;;;;;53.70;36.97;;;12.60;99.90;;;;;;5097686;28;20457;-70
2021/09/05 05:58:05;;;;;;;45.87;37.30;;;12.60;99.90;;;;;;5091202;28;20461;-68
2021/09/05 06:00:35;;;;;;;59.67;37.30;;;12.70;99.90;;;;;;5094061;28;20453;-68
2021/09/05 06:03:02;;;;;;;51.10;38.63;;;12.80;99.90;;;;;;5101692;28;20508;-70
2021/09/05 06:05:30;;;;;;;56.90;40.23;;;12.90;99.90;;;;;;5096761;28;20458;-68
2021/09/05 06:07:59;;;;;;;48.47;37.37;;;13.00;99.90;;;;;;5099193;28;20735;-68
2021/09/05 06:10:26;;;;;;;47.40;36.43;;;13.10;99.90;;;;;;5095340;28;20457;-69
2021/09/05 06:12:52;;;;;;;47.97;38.03;;;13.20;99.90;;;;;;5102659;28;20466;-69
2021/09/05 06:15:19;;;;;;;46.80;36.60;;;13.40;99.90;;;;;;5090356;28;20457;-68
2021/09/05 06:17:49;;;;;;;53.17;38.10;;;13.50;99.90;;;;;;5091257;28;20459;-70
2021/09/05 06:20:18;;;;;;;40.90;34.43;;;13.50;99.90;;;;;;5096123;28;20485;-69
2021/09/05 06:22:47;;;;;;;60.87;39.20;;;13.60;99.90;;;;;;5095392;28;20468;-68
2021/09/05 06:25:14;;;;;;;48.07;38.90;;;13.80;99.90;;;;;;5094645;28;20971;-67
2021/09/05 06:27:41;;;;;;;58.10;39.37;;;13.90;99.90;;;;;;5089452;28;20454;-70
2021/09/05 06:30:10;;;;;;;55.33;40.00;;;14.00;99.90;;;;;;5096239;28;20454;-69
2021/09/05 06:32:37;;;;;;;47.93;39.67;;;14.10;99.90;;;;;;5094267;28;20454;-69
2021/09/05 06:35:07;;;;;;;53.43;38.60;;;14.20;99.90;;;;;;5095097;28;20462;-68
2021/09/05 06:37:34;;;;;;;63.77;41.93;;;14.40;99.90;;;;;;5090008;28;20450;-68
2021/09/05 06:40:01;;;;;;;62.70;40.50;;;14.40;99.90;;;;;;5100625;28;20480;-68
2021/09/05 06:42:30;;;;;;;64.20;42.27;;;14.50;99.90;;;;;;5094410;28;20462;-68
2021/09/05 06:44:57;;;;;;;56.77;40.47;;;14.60;99.90;;;;;;5096300;28;20445;-68
2021/09/05 06:47:24;;;;;;;54.00;41.30;;;14.80;99.90;;;;;;5092656;28;20462;-69
2021/09/05 06:49:51;;;;;;;55.13;41.07;;;14.90;99.90;;;;;;5091840;28;20469;-68
2021/09/05 06:52:19;;;;;;;57.90;41.87;;;15.00;99.90;;;;;;5091961;28;20462;-68
2021/09/05 06:54:46;;;;;;;51.70;44.83;;;15.00;99.90;;;;;;5098853;28;20462;-68
2021/09/05 06:57:14;;;;;;;59.73;42.30;;;15.10;99.90;;;;;;5094094;28;20457;-67
2021/09/05 06:59:43;;;;;;;50.63;40.43;;;15.20;99.90;;;;;;5096817;28;20642;-67
2021/09/05 07:02:10;;;;;;;52.13;41.60;;;15.30;99.90;;;;;;5099637;28;20458;-67
2021/09/05 07:04:38;;;;;;;52.13;40.63;;;15.40;99.90;;;;;;5094324;28;20453;-67
2021/09/05 07:07:05;;;;;;;58.43;44.30;;;15.50;99.90;;;;;;5091560;28;20502;-68
2021/09/05 07:09:34;;;;;;;52.63;41.07;;;15.60;99.90;;;;;;5096490;28;20663;-69
2021/09/05 07:12:01;;;;;;;52.30;41.00;;;15.80;99.90;;;;;;5096816;28;20970;-67
2021/09/05 07:14:29;;;;;;;46.73;39.87;;;15.90;99.90;;;;;;5093719;28;20457;-68
2021/09/05 07:16:56;;;;;;;46.73;39.40;;;15.90;99.90;;;;;;5099343;28;20984;-67
2021/09/05 07:19:22;;;;;;;48.73;39.00;;;16.10;99.90;;;;;;5097529;28;20489;-70
2021/09/05 07:21:50;;;;;;;47.20;40.63;;;16.20;99.90;;;;;;5097148;28;20450;-68
2021/09/05 07:24:17;;;;;;;48.30;39.60;;;16.20;99.90;;;;;;5100704;28;20460;-67
2021/09/05 07:26:45;;;;;;;46.03;37.80;;;16.30;99.90;;;;;;5093922;28;20461;-68
2021/09/05 07:29:12;;;;;;;47.77;38.10;;;16.50;99.90;;;;;;5097013;28;20540;-69
2021/09/05 07:31:39;;;;;;;44.53;37.47;;;16.60;99.90;;;;;;5099312;28;20994;-67
2021/09/05 07:34:06;;;;;;;48.37;37.83;;;16.70;99.90;;;;;;5094546;28;20476;-67
2021/09/05 07:36:34;;;;;;;43.70;37.97;;;16.90;99.90;;;;;;5101148;28;20523;-68
2021/09/05 07:39:00;;;;;;;43.03;36.80;;;17.00;99.90;;;;;;5093788;28;20872;-69
2021/09/05 07:41:28;;;;;;;41.80;35.43;;;17.20;99.90;;;;;;5091540;28;20458;-68
2021/09/05 07:43:58;;;;;;;40.43;35.70;;;17.40;99.90;;;;;;5091564;28;20476;-67
2021/09/05 07:46:24;;;;;;;40.10;35.20;;;17.30;99.90;;;;;;5091722;28;20465;-68
2021/09/05 07:48:52;;;;;;;43.23;34.27;;;17.50;99.90;;;;;;5087223;28;20454;-69
2021/09/05 07:51:23;;;;;;;45.83;33.40;;;17.50;99.90;;;;;;5092397;28;21038;-68
2021/09/05 07:53:51;;;;;;;39.07;33.70;;;17.60;99.90;;;;;;5096105;28;20474;-68
2021/09/05 07:56:19;;;;;;;36.53;32.60;;;17.70;99.90;;;;;;5093314;28;20809;-68
2021/09/05 07:58:46;;;;;;;38.60;34.10;;;17.80;99.90;;;;;;5092462;28;20843;-70
2021/09/05 08:01:15;;;;;;;36.73;32.37;;;17.90;99.90;;;;;;5102693;28;20462;-68
2021/09/05 08:03:43;;;;;;;40.43;32.83;;;18.00;99.90;;;;;;5099039;28;20486;-68
2021/09/05 08:06:10;;;;;;;37.17;33.40;;;18.10;99.90;;;;;;5095683;28;20449;-70
2021/09/05 08:08:37;;;;;;;34.60;31.07;;;18.30;99.90;;;;;;5097980;28;20449;-70
2021/09/05 08:11:05;;;;;;;36.60;32.70;;;18.40;99.90;;;;;;5096096;28;20529;-70
2021/09/05 08:13:33;;;;;;;37.23;33.17;;;18.60;99.90;;;;;;5099056;28;20491;-68
2021/09/05 08:16:01;;;;;;;38.00;33.80;;;18.80;99.90;;;;;;5094531;28;20453;-68
2021/09/05 08:18:31;;;;;;;40.27;34.87;;;18.90;99.90;;;;;;5100171;28;20458;-68
2021/09/05 08:21:00;;;;;;;38.40;34.00;;;18.90;99.90;;;;;;5099282;28;20868;-68
2021/09/05 08:23:27;;;;;;;35.90;32.00;;;19.00;99.90;;;;;;5098767;28;20814;-70
2021/09/05 08:25:53;;;;;;;34.43;30.93;;;18.90;99.90;;;;;;5097639;28;20457;-68
2021/09/05 08:28:21;;;;;;;35.73;31.87;;;19.00;99.90;;;;;;5106921;28;20504;-68
2021/09/05 08:30:48;;;;;;;36.70;32.43;;;19.10;99.90;;;;;;5100624;28;20454;-69
2021/09/05 08:33:16;;;;;;;33.93;30.73;;;19.20;99.90;;;;;;5097215;28;20466;-68
2021/09/05 08:35:45;;;;;;;33.87;30.40;;;19.40;99.90;;;;;;5095775;28;20457;-68
2021/09/05 08:38:13;;;;;;;35.43;31.90;;;19.60;99.90;;;;;;5096375;28;20454;-67
2021/09/05 08:40:41;;;;;;;31.83;28.60;;;19.70;99.90;;;;;;5091406;28;20486;-68
2021/09/05 08:43:09;;;;;;;31.90;28.80;;;19.80;99.90;;;;;;5100239;28;20470;-68
2021/09/05 08:45:37;;;;;;;46.13;28.40;;;19.80;99.90;;;;;;5099406;28;20445;-68
2021/09/05 08:48:05;;;;;;;31.43;28.50;;;20.00;99.90;;;;;;5095555;28;20536;-68
2021/09/05 08:50:34;;;;;;;34.40;30.17;;;20.00;99.90;;;;;;5098300;28;20473;-68
2021/09/05 08:53:03;;;;;;;31.43;28.20;;;20.20;99.90;;;;;;5091554;28;21079;-68
2021/09/05 08:55:30;;;;;;;31.53;28.33;;;20.30;99.90;;;;;;5098905;28;20445;-71
2021/09/05 08:57:58;;;;;;;31.73;28.63;;;20.30;99.90;;;;;;5099691;28;20532;-70
2021/09/05 09:00:25;;;;;;;32.73;29.70;;;20.30;99.90;;;;;;5102181;28;20575;-70
2021/09/05 09:02:54;;;;;;;30.47;27.57;;;20.50;99.90;;;;;;5093768;28;20743;-71
2021/09/05 09:05:35;;;;;;;31.33;28.40;;;20.70;99.90;;;;;;5090893;28;20458;-71
2021/09/05 09:08:08;;;;;;;30.03;26.90;;;20.80;99.90;;;;;;5098606;28;20448;-71
2021/09/05 09:10:46;;;;;;;31.47;28.37;;;21.00;99.90;;;;;;5097901;28;20970;-69
2021/09/05 09:13:24;;;;;;;27.40;24.90;;;21.40;99.90;;;;;;5102132;28;20461;-68
2021/09/05 09:15:53;;;;;;;26.83;23.83;;;22.40;99.90;;;;;;5091845;28;20998;-69
2021/09/05 09:18:27;;;;;;;24.90;22.80;;;23.50;99.90;;;;;;5100499;28;20456;-69
2021/09/05 09:20:55;;;;;;;25.37;22.97;;;24.70;99.90;;;;;;5095679;27;20481;-69
2021/09/05 09:23:25;;;;;;;24.07;22.07;;;25.80;99.90;;;;;;5097595;28;20507;-69
2021/09/05 09:25:59;;;;;;;25.87;23.47;;;26.50;99.90;;;;;;5099146;28;20446;-69
2021/09/05 09:28:28;;;;;;;24.87;22.80;;;27.00;99.90;;;;;;5095585;28;20461;-69
2021/09/05 09:30:58;;;;;;;26.30;23.87;;;27.30;99.90;;;;;;5097542;28;20962;-69
2021/09/05 09:33:26;;;;;;;27.60;24.83;;;27.00;99.90;;;;;;5101515;28;20459;-70
2021/09/05 09:35:55;;;;;;;25.13;22.83;;;27.10;99.90;;;;;;5099004;28;20988;-70
2021/09/05 09:38:25;;;;;;;25.90;23.50;;;27.70;99.90;;;;;;5096802;28;20475;-72
2021/09/05 09:41:06;;;;;;;26.00;23.60;;;28.70;99.90;;;;;;5091363;28;20487;-70
2021/09/05 09:43:33;;;;;;;26.53;24.10;;;28.60;99.90;;;;;;5095278;28;20450;-70
2021/09/05 09:46:15;;;;;;;26.47;24.27;;;29.10;99.90;;;;;;5096216;28;20460;-70
2021/09/05 09:48:47;;;;;;;27.50;25.20;;;29.60;99.90;;;;;;5095715;28;20453;-70
2021/09/05 09:51:15;;;;;;;27.73;25.33;;;29.40;99.90;;;;;;5093088;28;20797;-70
2021/09/05 09:53:44;;;;;;;27.43;25.00;;;29.40;99.90;;;;;;5097920;28;20478;-69
2021/09/05 09:56:15;;;;;;;26.40;24.30;;;29.40;99.90;;;;;;5090851;28;20454;-70
2021/09/05 09:58:45;;;;;;;26.60;24.30;;;29.60;99.90;;;;;;5094558;28;20798;-70
2021/09/05 10:01:16;;;;;;;25.57;23.40;;;30.10;99.90;;;;;;5095219;28;20488;-71
2021/09/05 10:03:47;;;;;;;26.07;23.67;;;30.00;99.90;;;;;;5093334;28;20496;-70
2021/09/05 10:06:15;;;;;;;26.17;24.00;;;29.80;99.90;;;;;;5099555;28;20464;-70
2021/09/05 10:08:46;;;;;;;26.53;24.37;;;29.80;99.90;;;;;;5094126;28;20450;-70
2021/09/05 10:11:16;;;;;;;26.03;23.70;;;29.80;99.90;;;;;;5097380;28;20982;-71
2021/09/05 10:13:44;;;;;;;26.37;24.27;;;30.20;99.90;;;;;;5095599;28;20465;-70
2021/09/05 10:16:12;;;;;;;26.43;24.13;;;29.50;99.90;;;;;;5098601;28;20452;-71
2021/09/05 10:18:43;;;;;;;27.03;24.27;;;28.60;99.90;;;;;;5098139;28;20458;-71
2021/09/05 10:21:12;;;;;;;25.33;23.07;;;29.40;99.90;;;;;;5101378;28;20477;-71
2021/09/05 10:23:39;;;;;;;25.87;23.57;;;29.50;99.90;;;;;;5095958;28;20451;-71
2021/09/05 10:26:09;;;;;;;26.33;24.10;;;29.40;99.90;;;;;;5098499;28;20464;-70
2021/09/05 10:28:38;;;;;;;28.03;25.60;;;29.50;99.90;;;;;;5094815;28;20671;-72
2021/09/05 10:31:06;;;;;;;25.80;23.73;;;29.70;99.90;;;;;;5095284;28;21026;-71
2021/09/05 10:33:35;;;;;;;26.60;24.30;;;29.00;99.90;;;;;;5100096;28;20458;-70
2021/09/05 10:36:11;;;;;;;26.30;23.67;;;28.90;99.90;;;;;;5093526;28;20864;-71
2021/09/05 10:38:39;;;;;;;26.77;24.60;;;28.70;99.90;;;;;;5090049;28;20590;-71
2021/09/05 10:41:16;;;;;;;24.53;22.50;;;28.60;99.90;;;;;;5096302;28;20494;-71
2021/09/05 10:44:08;;;;;;;24.20;22.40;;;28.80;99.90;;;;;;5097248;28;20460;-70
2021/09/05 10:46:40;;;;;;;24.97;22.83;;;28.90;99.90;;;;;;5098618;28;20458;-72
2021/09/05 10:49:08;;;;;;;24.43;22.37;;;29.60;99.90;;;;;;5092428;28;20847;-71
2021/09/05 10:51:39;;;;;;;26.60;24.17;;;30.00;99.90;;;;;;5092192;28;20522;-71
2021/09/05 10:54:10;;;;;;;25.63;23.53;;;30.60;99.90;;;;;;5098991;28;21039;-71
2021/09/05 10:56:42;;;;;;;25.47;23.20;;;30.90;99.90;;;;;;5090851;28;20458;-72
2021/09/05 10:59:11;;;;;;;24.90;23.10;;;30.50;99.90;;;;;;5095024;28;20532;-71
2021/09/05 11:01:41;;;;;;;22.80;21.00;;;30.40;99.90;;;;;;5102124;28;20488;-73
2021/09/05 11:04:27;;;;;;;22.67;20.97;;;30.50;99.90;;;;;;5098769;28;20480;-73
2021/09/05 11:06:57;;;;;;;25.13;23.13;;;31.10;99.90;;;;;;5090172;28;20454;-72
2021/09/05 11:09:44;;;;;;;25.73;23.70;;;32.50;99.90;;;;;;5096062;28;20498;-72
2021/09/05 11:12:15;;;;;;;24.13;22.43;;;32.40;99.00;;;;;;5094602;28;20462;-72
2021/09/05 11:15:01;;;;;;;23.97;21.97;;;32.70;99.20;;;;;;5094571;28;20519;-71
2021/09/05 11:17:31;;;;;;;25.40;23.00;;;32.90;98.60;;;;;;5097184;28;20457;-72
2021/09/05 11:20:01;;;;;;;24.27;22.47;;;33.30;97.50;;;;;;5096640;28;20478;-71
2021/09/05 11:22:32;;;;;;;25.03;22.93;;;32.90;96.60;;;;;;5094033;28;20794;-72
2021/09/05 11:25:13;;;;;;;25.63;23.40;;;32.70;97.50;;;;;;5094247;28;20449;-72
2021/09/05 11:27:47;;;;;;;25.97;23.87;;;32.90;96.40;;;;;;5090443;28;20461;-73
2021/09/05 11:30:15;;;;;;;25.53;23.50;;;33.20;96.70;;;;;;5087197;28;20457;-71
2021/09/05 11:32:43;;;;;;;25.43;23.43;;;32.60;96.80;;;;;;5102820;28;20460;-73
2021/09/05 11:35:11;;;;;;;25.53;23.53;;;33.00;97.00;;;;;;5096742;28;20456;-72
2021/09/05 11:37:40;;;;;;;32.17;29.47;;;33.20;95.30;;;;;;5094410;28;20462;-72
2021/09/05 11:40:09;;;;;;;23.67;21.80;;;33.60;95.70;;;;;;5096818;28;20571;-72
2021/09/05 11:42:42;;;;;;;25.10;23.10;;;33.10;95.60;;;;;;5095276;27;20454;-72
2021/09/05 11:45:13;;;;;;;32.33;29.43;;;33.20;95.50;;;;;;5101805;28;20460;-72
2021/09/05 11:47:40;;;;;;;36.60;33.13;;;33.30;95.30;;;;;;5102830;28;20507;-72
2021/09/05 11:50:07;;;;;;;26.17;23.90;;;33.80;95.00;;;;;;5088743;28;20537;-72
2021/09/05 11:52:37;;;;;;;25.90;23.90;;;34.00;94.50;;;;;;5093967;28;20481;-72
2021/09/05 11:55:07;;;;;;;24.53;22.60;;;33.70;93.60;;;;;;5096089;28;20578;-72
2021/09/05 11:57:36;;;;;;;23.23;21.30;;;33.60;94.30;;;;;;5094142;28;20456;-72
2021/09/05 12:00:08;;;;;;;23.87;22.17;;;33.40;93.70;;;;;;5100880;28;20477;-73
2021/09/05 12:02:38;;;;;;;25.90;23.83;;;33.80;92.90;;;;;;5096182;28;20971;-73
2021/09/05 12:05:06;;;;;;;24.50;22.40;;;34.00;91.90;;;;;;5087097;28;20457;-72
2021/09/05 12:07:40;;;;;;;24.23;22.43;;;34.40;92.10;;;;;;5095369;28;20722;-72
2021/09/05 12:10:09;;;;;;;24.43;22.63;;;34.90;92.50;;;;;;5095854;28;20458;-75
2021/09/05 12:12:38;;;;;;;25.03;22.70;;;34.70;91.90;;;;;;5092475;28;20979;-72
2021/09/05 12:15:13;;;;;;;24.00;22.20;;;35.00;91.60;;;;;;5092298;28;20944;-72
2021/09/05 12:17:44;;;;;;;24.07;22.10;;;35.00;90.60;;;;;;5089205;28;20453;-72
2021/09/05 12:20:12;;;;;;;22.77;20.97;;;34.90;90.10;;;;;;5086736;28;20474;-73
2021/09/05 12:22:45;;;;;;;26.73;24.37;;;34.40;90.60;;;;;;5098967;28;20528;-72
2021/09/05 12:25:14;;;;;;;24.80;22.97;;;34.20;90.00;;;;;;5097053;28;20478;-74
2021/09/05 12:27:53;;;;;;;24.33;22.53;;;34.60;90.00;;;;;;5087580;28;20446;-72
2021/09/05 12:30:25;;;;;;;24.47;22.63;;;34.80;89.70;;;;;;5095051;28;20936;-73
2021/09/05 12:33:12;;;;;;;23.77;21.93;;;35.60;87.90;;;;;;5087678;28;20488;-72
2021/09/05 12:35:42;;;;;;;24.37;22.40;;;35.50;86.10;;;;;;5092325;28;20461;-73
2021/09/05 12:38:13;;;;;;;23.33;21.63;;;35.30;87.60;;;;;;5091066;28;20537;-73